Time;durP1;ratioP1;P1;durP2;ratioP2;P2;SDS_P1;SDS_P2;PMS_P1;PMS_P2;Temp;Humidity;BMP_temperature;BMP_pressure;BME280_temperature;BME280_humidity;BME280_pressure;Samples;Min_cycle;Max_cycle;Signal;HPM_P1;HPM_P2
2022/06/27 00:01:21;;;;;;;3.00;0.60;;;17.70;99.90;;;;;;5055107;28;20380;-79
2022/06/27 00:03:48;;;;;;;2.83;0.90;;;17.70;99.90;;;;;;5052718;28;20024;-78
2022/06/27 00:06:19;;;;;;;2.03;0.85;;;17.70;99.90;;;;;;5055482;28;20036;-79
2022/06/27 00:08:50;;;;;;;2.95;0.90;;;17.70;99.90;;;;;;5051957;28;20044;-78
2022/06/27 00:11:24;;;;;;;3.97;0.80;;;17.80;99.90;;;;;;5013384;28;20033;-78
2022/06/27 00:13:51;;;;;;;1.92;0.93;;;17.80;99.90;;;;;;5056082;28;20032;-77
2022/06/27 00:16:20;;;;;;;7.65;4.00;;;17.80;99.90;;;;;;5056848;28;20037;-79
2022/06/27 00:18:47;;;;;;;3.15;2.30;;;17.80;99.90;;;;;;5069854;28;20047;-76
2022/06/27 00:21:13;;;;;;;3.15;1.75;;;17.80;99.90;;;;;;5056758;28;20041;-82
2022/06/27 00:23:45;;;;;;;3.30;1.13;;;17.80;99.90;;;;;;5050669;28;20032;-80
2022/06/27 00:26:12;;;;;;;;;;;17.80;99.90;;;;;;5047467;28;20056;-81
2022/06/27 00:28:38;;;;;;;2.80;0.98;;;17.80;99.90;;;;;;5059953;28;19919;-80
2022/06/27 00:31:13;;;;;;;1.38;0.70;;;17.80;99.90;;;;;;5077609;28;20036;-82
2022/06/27 00:33:40;;;;;;;3.30;0.90;;;17.80;99.90;;;;;;5060085;28;20028;-80
2022/06/27 00:36:07;;;;;;;1.52;0.68;;;17.80;99.90;;;;;;5065411;28;20036;-80
2022/06/27 00:38:33;;;;;;;2.05;0.60;;;17.80;99.90;;;;;;5081775;28;20063;-81
2022/06/27 00:41:03;;;;;;;3.45;0.65;;;17.90;99.90;;;;;;5044222;28;20032;-80
2022/06/27 00:43:30;;;;;;;2.80;0.85;;;17.80;99.90;;;;;;5069568;28;20385;-80
2022/06/27 00:45:57;;;;;;;2.10;0.70;;;17.80;99.90;;;;;;5077182;28;20052;-80
2022/06/27 00:48:30;;;;;;;2.85;0.95;;;17.90;99.90;;;;;;5033571;28;20044;-80
2022/06/27 00:50:59;;;;;;;2.00;0.73;;;17.90;99.90;;;;;;5049177;28;20033;-80
2022/06/27 00:53:25;;;;;;;2.85;0.60;;;17.90;99.90;;;;;;5059262;28;20029;-80
2022/06/27 00:55:55;;;;;;;3.20;0.70;;;17.90;99.90;;;;;;5062726;28;20044;-80
2022/06/27 00:58:22;;;;;;;2.80;0.70;;;17.90;99.90;;;;;;5057985;28;20074;-80
2022/06/27 01:00:48;;;;;;;1.90;0.73;;;17.90;99.90;;;;;;5009349;28;20475;-80
2022/06/27 01:03:14;;;;;;;1.45;0.55;;;17.90;99.90;;;;;;5054326;28;20021;-80
2022/06/27 01:05:51;;;;;;;2.03;0.55;;;17.80;99.90;;;;;;5063745;28;20100;-80
2022/06/27 01:08:19;;;;;;;3.22;0.80;;;17.90;99.90;;;;;;5065029;28;20028;-80
2022/06/27 01:10:46;;;;;;;1.90;0.50;;;17.80;99.90;;;;;;5061337;28;20036;-80
2022/06/27 01:13:14;;;;;;;2.28;0.75;;;17.80;99.90;;;;;;5073333;28;20041;-80
2022/06/27 01:15:42;;;;;;;1.90;0.90;;;17.80;99.90;;;;;;5058945;28;20036;-80
2022/06/27 01:18:09;;;;;;;3.97;0.80;;;17.80;99.90;;;;;;5059107;28;20052;-81
2022/06/27 01:20:36;;;;;;;1.98;0.93;;;17.80;99.90;;;;;;5044251;28;20054;-80
2022/06/27 01:23:04;;;;;;;2.35;0.70;;;17.90;99.90;;;;;;5064365;28;20024;-80
2022/06/27 01:25:33;;;;;;;3.35;0.93;;;17.90;99.90;;;;;;5066536;28;20025;-80
2022/06/27 01:28:00;;;;;;;1.13;0.70;;;17.90;99.90;;;;;;5048618;28;20027;-80
2022/06/27 01:30:27;;;;;;;3.10;0.73;;;17.90;99.90;;;;;;5036817;28;20049;-80
2022/06/27 01:32:54;;;;;;;3.20;0.98;;;17.90;99.90;;;;;;5031235;28;20526;-80
2022/06/27 01:35:22;;;;;;;1.20;0.60;;;17.80;99.90;;;;;;5032716;28;21308;-80
2022/06/27 01:37:49;;;;;;;2.30;0.70;;;17.90;99.90;;;;;;5047298;28;20047;-81
2022/06/27 01:40:16;;;;;;;2.90;1.05;;;17.90;99.90;;;;;;5060448;28;20475;-80
2022/06/27 01:42:43;;;;;;;3.17;1.17;;;17.80;99.90;;;;;;5061846;28;20481;-81
2022/06/27 01:45:11;;;;;;;2.00;0.80;;;17.80;99.90;;;;;;5063318;28;20040;-80
2022/06/27 01:47:38;;;;;;;3.97;0.88;;;17.80;99.90;;;;;;5049173;28;20028;-80
2022/06/27 01:50:11;;;;;;;1.33;0.65;;;17.80;99.90;;;;;;5033143;28;20039;-80
2022/06/27 01:52:42;;;;;;;4.10;1.00;;;17.80;99.90;;;;;;5048373;28;20028;-80
2022/06/27 01:55:19;;;;;;;2.00;0.90;;;17.80;99.90;;;;;;5062437;28;20039;-80
2022/06/27 01:57:48;;;;;;;2.40;1.02;;;17.80;99.90;;;;;;5064344;28;20410;-80
2022/06/27 02:00:18;;;;;;;2.33;0.90;;;17.80;99.90;;;;;;5049370;28;20032;-80
2022/06/27 02:02:59;;;;;;;2.55;0.70;;;17.80;99.90;;;;;;5047642;28;20032;-80
2022/06/27 02:05:31;;;;;;;2.20;0.80;;;17.80;99.90;;;;;;5063331;28;20472;-80
2022/06/27 02:08:00;;;;;;;2.05;1.00;;;17.80;99.90;;;;;;5060145;28;20487;-80
2022/06/27 02:10:30;;;;;;;4.10;1.00;;;17.80;99.90;;;;;;5074692;28;20491;-80
2022/06/27 02:13:03;;;;;;;2.13;0.82;;;17.80;99.90;;;;;;5079258;28;20024;-80
2022/06/27 02:15:32;;;;;;;2.08;0.85;;;17.80;99.90;;;;;;5059308;28;20032;-80
2022/06/27 02:17:59;;;;;;;4.65;1.17;;;17.80;99.90;;;;;;5044573;28;20040;-80
2022/06/27 02:20:27;;;;;;;2.38;1.05;;;17.80;99.90;;;;;;5051140;28;20459;-80
2022/06/27 02:23:02;;;;;;;3.78;0.93;;;17.80;99.90;;;;;;5060171;28;20035;-80
2022/06/27 02:25:31;;;;;;;4.30;1.00;;;17.80;99.90;;;;;;5077088;28;20033;-80
2022/06/27 02:28:03;;;;;;;3.45;1.52;;;17.80;99.90;;;;;;5048071;28;20028;-80
2022/06/27 02:30:31;;;;;;;3.58;1.15;;;17.80;99.90;;;;;;5061599;28;20037;-80
2022/06/27 02:32:58;;;;;;;3.00;1.13;;;17.90;99.90;;;;;;5074203;28;20036;-80
2022/06/27 02:35:27;;;;;;;2.72;1.10;;;17.80;99.90;;;;;;5014923;28;20044;-80
2022/06/27 02:37:57;;;;;;;3.40;1.30;;;17.80;99.90;;;;;;5077995;28;20053;-80
2022/06/27 02:40:29;;;;;;;3.28;1.10;;;17.80;99.90;;;;;;5045341;28;20507;-80
2022/06/27 02:43:06;;;;;;;4.43;1.30;;;17.80;99.90;;;;;;5064379;28;20391;-80
2022/06/27 02:45:36;;;;;;;4.55;1.35;;;17.80;99.90;;;;;;5075879;28;20088;-80
2022/06/27 02:48:05;;;;;;;3.58;1.40;;;17.80;99.90;;;;;;5045980;28;20032;-81
2022/06/27 02:50:34;;;;;;;2.38;1.27;;;17.70;99.90;;;;;;5061422;28;20032;-80
2022/06/27 02:53:09;;;;;;;5.65;1.65;;;17.70;99.90;;;;;;5057653;28;20032;-80
2022/06/27 02:55:41;;;;;;;5.10;1.40;;;17.70;99.90;;;;;;5063982;28;20047;-81
2022/06/27 02:58:16;;;;;;;3.13;1.42;;;17.70;99.90;;;;;;5045411;28;20033;-80
2022/06/27 03:00:49;;;;;;;2.92;1.40;;;17.70;99.90;;;;;;5041628;28;20039;-80
2022/06/27 03:03:16;;;;;;;3.22;1.60;;;17.70;99.90;;;;;;5047735;28;20036;-80
2022/06/27 03:06:04;;;;;;;4.93;1.40;;;17.70;99.90;;;;;;5064269;28;20029;-80
2022/06/27 03:08:43;;;;;;;1.90;1.20;;;17.60;99.90;;;;;;5020080;28;20021;-81
2022/06/27 03:11:13;;;;;;;4.30;1.75;;;17.70;99.90;;;;;;5030179;28;20480;-78
2022/06/27 03:13:40;;;;;;;2.63;1.58;;;17.70;99.90;;;;;;5044992;28;20039;-80
2022/06/27 03:16:08;;;;;;;2.75;1.50;;;17.60;99.90;;;;;;5031785;28;20456;-80
2022/06/27 03:18:36;;;;;;;4.00;1.83;;;17.70;99.90;;;;;;5074323;28;20380;-80
2022/06/27 03:21:08;;;;;;;2.83;1.70;;;17.70;99.90;;;;;;5057867;28;20032;-80
2022/06/27 03:23:39;;;;;;;2.95;1.65;;;17.60;99.90;;;;;;5074757;28;20032;-77
2022/06/27 03:26:07;;;;;;;4.97;2.22;;;17.60;99.90;;;;;;5042439;28;20025;-78
2022/06/27 03:28:35;;;;;;;4.63;2.00;;;17.70;99.90;;;;;;5010040;28;20029;-78
2022/06/27 03:31:03;;;;;;;4.55;2.28;;;17.70;99.90;;;;;;5011181;28;20020;-78
2022/06/27 03:33:35;;;;;;;3.67;2.27;;;17.70;99.90;;;;;;5075835;28;20038;-78
2022/06/27 03:36:24;;;;;;;4.32;2.30;;;17.70;99.90;;;;;;5042055;28;20590;-78
2022/06/27 03:38:51;;;;;;;2.40;1.95;;;17.70;99.90;;;;;;5067551;28;20037;-78
2022/06/27 03:41:19;;;;;;;2.92;1.92;;;17.70;99.90;;;;;;5060688;28;20063;-78
2022/06/27 03:43:45;;;;;;;4.00;2.45;;;17.70;99.90;;;;;;5051085;28;20025;-77
2022/06/27 03:46:12;;;;;;;3.03;1.85;;;17.70;99.90;;;;;;5058640;28;20041;-78
2022/06/27 03:51:48;;;;;;;4.63;3.28;;;17.70;99.90;;;;;;5056746;28;20029;-77
2022/06/27 03:54:15;;;;;;;5.03;2.80;;;17.60;99.90;;;;;;5048775;28;20035;-77
2022/06/27 03:56:42;;;;;;;5.53;2.95;;;17.60;99.90;;;;;;5046723;28;20052;-77
2022/06/27 03:59:09;;;;;;;4.75;2.97;;;17.60;99.90;;;;;;5045007;28;20028;-77
2022/06/27 04:01:36;;;;;;;4.38;3.05;;;17.50;99.90;;;;;;5059386;28;20456;-77
2022/06/27 04:04:03;;;;;;;5.15;2.47;;;17.50;99.90;;;;;;5057769;28;20048;-76
2022/06/27 04:06:30;;;;;;;3.55;2.75;;;17.50;99.90;;;;;;5076961;28;20016;-77
2022/06/27 04:08:57;;;;;;;5.18;3.15;;;17.40;99.90;;;;;;5060610;28;20029;-76
2022/06/27 04:11:23;;;;;;;3.22;2.42;;;17.40;99.90;;;;;;5078225;28;20052;-76
2022/06/27 04:13:54;;;;;;;4.30;3.03;;;17.50;99.90;;;;;;5062181;28;20039;-76
2022/06/27 04:16:39;;;;;;;4.90;3.38;;;17.50;99.90;;;;;;5062166;28;20047;-76
2022/06/27 04:19:27;;;;;;;5.50;3.58;;;17.50;99.90;;;;;;5045658;28;20463;-77
2022/06/27 04:22:13;;;;;;;4.72;3.15;;;17.60;99.90;;;;;;5049501;28;20048;-77
2022/06/27 04:25:18;;;;;;;8.07;3.88;;;17.60;99.90;;;;;;5031868;28;20032;-76
2022/06/27 04:27:48;;;;;;;4.47;3.63;;;17.70;99.90;;;;;;5043416;28;20056;-77
2022/06/27 04:30:18;;;;;;;4.28;3.20;;;17.70;99.90;;;;;;5040760;28;20049;-77
2022/06/27 04:32:48;;;;;;;5.65;4.45;;;17.80;99.90;;;;;;5027150;28;20025;-77
2022/06/27 04:35:15;;;;;;;5.80;4.38;;;17.80;99.90;;;;;;5043510;28;20033;-77
2022/06/27 04:37:43;;;;;;;5.57;4.13;;;17.90;99.90;;;;;;5041553;28;20047;-77
2022/06/27 04:40:30;;;;;;;6.55;4.18;;;17.90;99.90;;;;;;5056080;28;20040;-77
2022/06/27 04:42:59;;;;;;;6.80;4.43;;;18.00;99.90;;;;;;5042852;28;21335;-76
2022/06/27 04:45:27;;;;;;;5.38;3.88;;;18.00;99.90;;;;;;5033694;28;20041;-76
2022/06/27 04:48:07;;;;;;;5.72;3.83;;;18.10;99.90;;;;;;5022345;28;20033;-77
2022/06/27 04:50:41;;;;;;;5.78;4.22;;;18.10;99.90;;;;;;5021138;28;20045;-77
2022/06/27 04:53:07;;;;;;;4.10;3.70;;;18.20;99.90;;;;;;5026080;28;20036;-77
2022/06/27 04:55:33;;;;;;;7.30;4.38;;;18.20;99.90;;;;;;4981868;28;20044;-77
2022/06/27 04:58:00;;;;;;;4.15;3.70;;;18.40;99.90;;;;;;5015681;28;20024;-77
2022/06/27 05:00:29;;;;;;;6.45;3.88;;;18.50;99.90;;;;;;5027918;28;20036;-77
2022/06/27 05:03:16;;;;;;;4.45;3.58;;;18.60;99.90;;;;;;5055244;28;20013;-77
2022/06/27 05:05:53;;;;;;;6.93;3.92;;;18.60;99.90;;;;;;5047516;28;20037;-77
2022/06/27 05:08:20;;;;;;;8.48;4.38;;;18.60;99.90;;;;;;5046142;28;20040;-77
2022/06/27 05:10:48;;;;;;;6.97;4.28;;;18.70;99.90;;;;;;5029553;28;20045;-77
2022/06/27 05:13:15;;;;;;;8.40;4.80;;;18.70;99.90;;;;;;5044097;28;20036;-77
2022/06/27 05:15:42;;;;;;;10.80;4.78;;;18.70;99.90;;;;;;5048007;28;20033;-77
2022/06/27 05:18:08;;;;;;;7.97;4.35;;;18.70;99.90;;;;;;5045438;28;20040;-77
2022/06/27 05:20:35;;;;;;;6.03;3.78;;;18.80;99.90;;;;;;5047970;28;21578;-77
2022/06/27 05:23:01;;;;;;;5.30;3.55;;;18.80;99.90;;;;;;5013827;28;20029;-77
2022/06/27 05:25:30;;;;;;;3.85;3.40;;;18.90;99.90;;;;;;5028403;28;20033;-77
2022/06/27 05:27:58;;;;;;;5.45;3.58;;;18.90;99.90;;;;;;5065923;28;20023;-77
2022/06/27 05:30:24;;;;;;;5.03;3.08;;;18.90;99.90;;;;;;5060041;28;20035;-77
2022/06/27 05:32:51;;;;;;;4.53;3.38;;;18.90;99.90;;;;;;5014095;28;20033;-77
2022/06/27 05:35:18;;;;;;;5.90;4.32;;;18.90;99.90;;;;;;5025808;28;20032;-77
2022/06/27 05:37:46;;;;;;;4.80;4.13;;;19.00;99.90;;;;;;5076257;28;20049;-77
2022/06/27 05:40:13;;;;;;;9.18;6.70;;;18.90;99.90;;;;;;5043295;28;20322;-77
2022/06/27 05:42:40;;;;;;;6.32;4.70;;;18.90;99.90;;;;;;5061999;28;20033;-79
2022/06/27 05:45:08;;;;;;;6.18;4.72;;;18.90;99.90;;;;;;5061730;28;20047;-79
2022/06/27 05:47:59;;;;;;;4.93;4.43;;;18.80;99.90;;;;;;5054350;28;20024;-78
2022/06/27 05:50:27;;;;;;;8.05;4.05;;;18.80;99.90;;;;;;5050475;28;20023;-79
2022/06/27 05:52:59;;;;;;;6.05;4.78;;;18.80;99.90;;;;;;5047275;28;20048;-79
2022/06/27 05:55:29;;;;;;;7.93;4.78;;;18.70;99.90;;;;;;5078651;28;20391;-79
2022/06/27 05:57:57;;;;;;;6.18;5.40;;;18.70;99.90;;;;;;5049510;28;20051;-79
2022/06/27 06:00:24;;;;;;;6.10;3.72;;;18.70;99.90;;;;;;5062536;28;20253;-79
2022/06/27 06:02:55;;;;;;;7.53;5.53;;;18.70;99.90;;;;;;5061052;28;20028;-80
2022/06/27 06:05:22;;;;;;;6.63;4.43;;;18.70;99.90;;;;;;5061758;28;20059;-78
2022/06/27 06:07:49;;;;;;;5.47;3.90;;;18.80;99.90;;;;;;5042693;28;21387;-77
2022/06/27 06:10:17;;;;;;;6.75;4.05;;;18.90;99.90;;;;;;5040472;28;20805;-75
2022/06/27 06:12:50;;;;;;;4.95;4.45;;;18.90;99.90;;;;;;5058334;28;20032;-76
2022/06/27 06:15:23;;;;;;;7.60;5.50;;;19.10;99.90;;;;;;5076038;28;20024;-76
2022/06/27 06:17:49;;;;;;;6.85;4.45;;;19.20;99.90;;;;;;5043176;28;20056;-76
2022/06/27 06:20:20;;;;;;;5.85;4.78;;;19.30;99.90;;;;;;5035991;28;20039;-77
2022/06/27 06:22:53;;;;;;;6.25;4.88;;;19.40;99.90;;;;;;5062893;28;20020;-77
2022/06/27 06:25:20;;;;;;;6.30;5.15;;;19.50;99.90;;;;;;5060173;28;20040;-77
2022/06/27 06:27:49;;;;;;;8.48;4.82;;;19.60;99.90;;;;;;5058396;28;20036;-77
2022/06/27 06:30:19;;;;;;;6.45;5.32;;;19.70;99.90;;;;;;5076570;28;20392;-77
2022/06/27 06:32:50;;;;;;;4.80;4.13;;;19.80;99.90;;;;;;5044759;28;20028;-77
2022/06/27 06:35:18;;;;;;;8.38;5.82;;;19.80;99.90;;;;;;5073314;28;20510;-77
2022/06/27 06:37:45;;;;;;;5.13;4.35;;;19.80;99.90;;;;;;5042141;28;20044;-77
2022/06/27 06:40:16;;;;;;;10.02;5.65;;;19.70;99.90;;;;;;5058681;28;20032;-77
2022/06/27 06:42:42;;;;;;;6.20;4.57;;;19.70;99.90;;;;;;5026007;28;20039;-77
2022/06/27 06:45:30;;;;;;;5.65;4.47;;;19.60;99.90;;;;;;5049745;28;20546;-77
2022/06/27 06:48:11;;;;;;;5.88;3.75;;;19.60;99.90;;;;;;5046087;28;20036;-76
2022/06/27 06:50:38;;;;;;;5.38;3.70;;;19.50;99.90;;;;;;5037735;28;20480;-76
2022/06/27 06:53:07;;;;;;;10.65;3.60;;;19.50;99.90;;;;;;5057148;28;20024;-76
2022/06/27 06:55:42;;;;;;;9.40;3.17;;;19.40;99.90;;;;;;5059139;28;20487;-77
2022/06/27 06:58:09;;;;;;;7.38;3.60;;;19.50;99.90;;;;;;5059058;28;20028;-77
2022/06/27 07:00:38;;;;;;;6.47;3.15;;;19.50;99.90;;;;;;5054122;28;20055;-77
2022/06/27 07:03:05;;;;;;;6.72;4.20;;;19.50;99.90;;;;;;5053822;28;20032;-77
2022/06/27 07:05:32;;;;;;;5.90;3.92;;;19.60;99.90;;;;;;5055192;28;20020;-77
2022/06/27 07:08:00;;;;;;;6.25;4.32;;;19.60;99.90;;;;;;5059596;28;20029;-77
2022/06/27 07:10:28;;;;;;;7.30;5.78;;;19.70;99.90;;;;;;5023267;28;20049;-77
2022/06/27 07:12:55;;;;;;;9.32;5.95;;;19.70;99.90;;;;;;5059153;28;20024;-77
2022/06/27 07:15:21;;;;;;;7.88;5.18;;;19.70;99.90;;;;;;5058940;28;20021;-77
2022/06/27 07:17:52;;;;;;;6.47;5.53;;;19.70;99.90;;;;;;5042270;28;20388;-77
2022/06/27 07:20:19;;;;;;;5.25;4.72;;;19.70;99.90;;;;;;5057293;28;20025;-77
2022/06/27 07:22:49;;;;;;;5.40;4.47;;;19.80;99.90;;;;;;5054281;28;20051;-77
2022/06/27 07:25:17;;;;;;;6.30;5.70;;;19.90;99.90;;;;;;5073005;28;20009;-77
2022/06/27 07:27:44;;;;;;;9.95;6.75;;;19.90;99.90;;;;;;5055134;28;20043;-77
2022/06/27 07:30:12;;;;;;;6.80;5.00;;;20.00;99.90;;;;;;5074489;28;20026;-77
2022/06/27 07:32:40;;;;;;;10.70;5.55;;;19.90;99.90;;;;;;5058078;28;20047;-76
2022/06/27 07:35:17;;;;;;;5.47;4.88;;;19.90;99.90;;;;;;5044513;28;20035;-77
2022/06/27 07:37:48;;;;;;;4.63;3.95;;;20.00;99.90;;;;;;5040641;28;20057;-77
2022/06/27 07:40:17;;;;;;;5.60;4.07;;;20.10;99.90;;;;;;5054111;28;20040;-77
2022/06/27 07:42:44;;;;;;;5.55;4.13;;;20.10;99.90;;;;;;5057191;28;20055;-77
2022/06/27 07:45:13;;;;;;;7.25;6.47;;;20.20;99.90;;;;;;5040796;28;20025;-77
2022/06/27 07:47:40;;;;;;;6.93;5.75;;;20.20;99.90;;;;;;5058512;28;20029;-77
2022/06/27 07:50:07;;;;;;;9.35;6.00;;;20.20;99.90;;;;;;5052362;28;20028;-77
2022/06/27 07:53:11;;;;;;;6.20;5.50;;;20.20;99.90;;;;;;5054595;28;20051;-77
2022/06/27 07:55:23;;;;;;;5.28;4.22;;;20.20;99.90;;;;;;5039944;28;20047;-77
2022/06/27 07:57:52;;;;;;;4.82;3.85;;;20.20;99.90;;;;;;5061368;28;21045;-75
2022/06/27 08:00:21;;;;;;;4.93;3.90;;;20.20;99.90;;;;;;5056713;28;20025;-78
2022/06/27 08:02:49;;;;;;;7.70;5.70;;;20.30;99.90;;;;;;5035692;28;20045;-77
2022/06/27 08:05:16;;;;;;;4.90;4.18;;;20.40;99.90;;;;;;5027678;28;20029;-77
2022/06/27 08:07:42;;;;;;;5.55;3.50;;;20.60;99.90;;;;;;5045319;28;20032;-78
2022/06/27 08:10:11;;;;;;;5.72;3.63;;;20.60;99.90;;;;;;5071116;28;20039;-78
2022/06/27 08:12:38;;;;;;;6.88;4.43;;;20.80;99.90;;;;;;5055155;28;20055;-78
2022/06/27 08:15:09;;;;;;;5.50;4.40;;;20.90;99.90;;;;;;5073065;28;20028;-78
2022/06/27 08:17:35;;;;;;;5.70;3.92;;;21.20;99.90;;;;;;5008645;28;20044;-78
2022/06/27 08:20:03;;;;;;;5.03;3.75;;;21.30;99.90;;;;;;5075377;28;20029;-77
2022/06/27 08:22:38;;;;;;;4.70;3.38;;;21.40;99.90;;;;;;5009132;28;20040;-77
2022/06/27 08:25:14;;;;;;;5.07;3.88;;;21.50;99.90;;;;;;5057893;28;20043;-77
2022/06/27 08:27:41;;;;;;;4.65;2.67;;;21.60;99.90;;;;;;5042623;28;20039;-80
2022/06/27 08:30:09;;;;;;;4.60;2.63;;;21.80;99.90;;;;;;5039870;28;20045;-82
2022/06/27 08:32:43;;;;;;;4.82;3.83;;;21.80;99.90;;;;;;5054468;28;20029;-80
2022/06/27 08:35:11;;;;;;;4.30;3.75;;;21.90;99.90;;;;;;5042189;28;20338;-80
2022/06/27 08:37:41;;;;;;;5.88;3.28;;;21.90;99.90;;;;;;5065742;28;20063;-79
2022/06/27 08:40:11;;;;;;;4.20;2.63;;;21.80;99.90;;;;;;5048232;28;20495;-80
2022/06/27 08:42:38;;;;;;;5.63;4.40;;;21.80;99.90;;;;;;5048605;28;20056;-80
2022/06/27 08:45:09;;;;;;;7.18;3.95;;;21.90;99.90;;;;;;5063206;28;20040;-81
2022/06/27 08:47:38;;;;;;;5.38;2.97;;;22.10;99.90;;;;;;5062701;28;20036;-81
2022/06/27 08:50:09;;;;;;;4.13;2.72;;;22.20;99.90;;;;;;5051587;28;20028;-79
2022/06/27 08:52:39;;;;;;;7.57;2.40;;;22.50;99.90;;;;;;5036233;28;20045;-80
2022/06/27 08:55:10;;;;;;;4.97;2.20;;;22.70;99.90;;;;;;5048466;28;20037;-80
2022/06/27 08:57:42;;;;;;;4.90;2.38;;;22.80;99.90;;;;;;5062674;28;20376;-81
2022/06/27 09:00:11;;;;;;;3.55;2.28;;;22.90;99.90;;;;;;5060981;28;20032;-81
2022/06/27 09:02:42;;;;;;;2.83;1.83;;;23.00;99.90;;;;;;5033440;28;20052;-81
2022/06/27 09:05:27;;;;;;;3.85;1.67;;;23.30;99.90;;;;;;5066476;28;20024;-81
2022/06/27 09:07:56;;;;;;;3.95;1.73;;;23.50;99.90;;;;;;5064626;28;20035;-82
2022/06/27 09:10:30;;;;;;;2.33;1.30;;;23.50;99.90;;;;;;5059052;28;20040;-81
2022/06/27 09:12:59;;;;;;;3.90;0.95;;;23.60;99.90;;;;;;5059450;28;20045;-77
2022/06/27 09:15:38;;;;;;;3.42;1.17;;;23.60;99.90;;;;;;5059736;28;20021;-77
2022/06/27 09:18:07;;;;;;;8.32;1.27;;;23.50;99.90;;;;;;5060823;28;20032;-77
2022/06/27 09:20:49;;;;;;;3.92;1.20;;;23.30;99.90;;;;;;5062330;28;20017;-77
2022/06/27 09:23:29;;;;;;;4.47;1.27;;;23.30;99.90;;;;;;5071558;28;20021;-77
2022/06/27 09:26:00;;;;;;;3.35;0.80;;;23.20;99.90;;;;;;5062313;28;20500;-77
2022/06/27 09:28:41;;;;;;;2.22;1.02;;;23.20;99.90;;;;;;5062497;28;20392;-77
2022/06/27 09:31:14;;;;;;;3.50;1.50;;;23.40;99.90;;;;;;5061167;28;20028;-76
2022/06/27 09:33:41;;;;;;;;;;;23.50;99.90;;;;;;5044227;28;20035;-77
2022/06/27 09:36:15;;;;;;;3.92;1.23;;;23.60;99.90;;;;;;5059306;28;20359;-77
2022/06/27 09:38:43;;;;;;;3.10;1.58;;;23.60;99.90;;;;;;5040169;28;20511;-77
2022/06/27 09:41:12;;;;;;;3.20;1.65;;;23.60;99.90;;;;;;5073665;28;20033;-76
2022/06/27 09:43:44;;;;;;;2.65;1.50;;;23.60;99.90;;;;;;5055736;28;20020;-77
2022/06/27 09:46:13;;;;;;;3.72;1.50;;;23.50;99.90;;;;;;5060649;28;20024;-76
2022/06/27 09:48:44;;;;;;;2.33;1.25;;;23.50;99.90;;;;;;5027438;28;20016;-76
2022/06/27 09:51:17;;;;;;;3.90;2.08;;;23.60;99.90;;;;;;5058567;28;20510;-77
2022/06/27 09:53:50;;;;;;;6.47;2.00;;;23.60;99.90;;;;;;5056024;28;20067;-77
2022/06/27 09:56:19;;;;;;;5.82;3.63;;;23.60;99.90;;;;;;5061442;28;20032;-78
2022/06/27 09:58:46;;;;;;;4.43;2.80;;;23.50;99.90;;;;;;5058458;28;20051;-78
2022/06/27 10:01:12;;;;;;;4.28;2.42;;;23.50;99.90;;;;;;5057720;28;20018;-78
2022/06/27 10:03:40;;;;;;;5.43;2.22;;;23.50;99.90;;;;;;5045331;28;20036;-78
2022/06/27 10:06:07;;;;;;;3.42;1.50;;;23.40;99.90;;;;;;5077232;28;20016;-77
2022/06/27 10:08:36;;;;;;;3.15;1.42;;;23.30;99.90;;;;;;5044463;28;20033;-76
2022/06/27 10:11:08;;;;;;;3.83;1.70;;;23.40;99.90;;;;;;5060989;28;20029;-77
2022/06/27 10:13:37;;;;;;;3.53;2.13;;;23.40;99.90;;;;;;5058071;28;20028;-76
2022/06/27 10:16:08;;;;;;;2.70;1.42;;;23.60;99.90;;;;;;5075221;28;20027;-77
2022/06/27 10:19:03;;;;;;;3.67;2.03;;;23.90;99.90;;;;;;5042025;28;20372;-77
2022/06/27 10:21:40;;;;;;;4.47;1.85;;;24.20;99.90;;;;;;5058309;28;20048;-77
2022/06/27 10:24:21;;;;;;;2.67;1.35;;;24.30;99.90;;;;;;5043091;28;20045;-77
2022/06/27 10:26:55;;;;;;;3.58;1.80;;;24.30;99.90;;;;;;5046063;28;20032;-77
2022/06/27 10:29:45;;;;;;;2.88;1.23;;;24.30;99.90;;;;;;5072351;28;20036;-77
2022/06/27 10:32:46;;;;;;;3.72;1.73;;;24.30;99.90;;;;;;5037999;28;20036;-76
2022/06/27 10:35:15;;;;;;;3.47;1.20;;;24.30;99.90;;;;;;5059622;28;20037;-76
2022/06/27 10:37:43;;;;;;;3.72;1.40;;;24.30;99.90;;;;;;5061220;28;20048;-77
2022/06/27 10:40:23;;;;;;;4.38;1.77;;;24.50;99.40;;;;;;5056225;28;20017;-77
2022/06/27 10:43:00;;;;;;;3.53;1.50;;;24.70;98.50;;;;;;5072375;28;20024;-77
2022/06/27 10:45:27;;;;;;;5.35;1.88;;;24.90;97.90;;;;;;5041441;28;20044;-76
2022/06/27 10:47:58;;;;;;;5.10;1.75;;;25.10;97.40;;;;;;5057958;28;20372;-78
2022/06/27 10:50:28;;;;;;;3.03;1.95;;;25.30;97.00;;;;;;5056279;28;20031;-77
2022/06/27 10:53:19;;;;;;;4.68;1.65;;;25.40;96.90;;;;;;5055721;28;20033;-77
2022/06/27 10:55:47;;;;;;;1.98;0.90;;;25.60;96.60;;;;;;5049010;28;20037;-80
2022/06/27 10:58:22;;;;;;;4.07;1.23;;;25.70;96.20;;;;;;5074012;28;20132;-79
2022/06/27 11:00:50;;;;;;;2.60;1.02;;;25.80;95.30;;;;;;5057530;28;20028;-80
2022/06/27 11:03:25;;;;;;;1.90;1.15;;;25.70;94.80;;;;;;5041138;28;20052;-81
2022/06/27 11:06:04;;;;;;;3.03;0.90;;;25.70;94.50;;;;;;5062780;28;20043;-79
2022/06/27 11:08:37;;;;;;;4.80;1.35;;;25.60;94.00;;;;;;5055313;28;20498;-80
2022/06/27 11:11:05;;;;;;;4.78;2.60;;;25.60;93.40;;;;;;5042943;28;20028;-80
2022/06/27 11:13:49;;;;;;;3.20;1.33;;;25.50;93.30;;;;;;5063494;28;20039;-80
2022/06/27 11:16:19;;;;;;;3.85;1.45;;;25.70;93.60;;;;;;5066684;28;20025;-80
2022/06/27 11:18:52;;;;;;;2.25;0.90;;;26.00;92.90;;;;;;5073566;28;20578;-78
2022/06/27 11:21:20;;;;;;;2.95;1.00;;;26.30;92.60;;;;;;5060069;28;20017;-79
2022/06/27 11:24:02;;;;;;;4.88;1.63;;;26.40;91.90;;;;;;5062411;28;20060;-79
2022/06/27 11:26:33;;;;;;;3.42;0.88;;;26.30;91.60;;;;;;5062215;28;20043;-79
2022/06/27 11:32:01;;;;;;;2.60;1.30;;;26.30;91.80;;;;;;5063361;28;20518;-76
2022/06/27 11:34:30;;;;;;;3.83;0.95;;;26.40;91.40;;;;;;5061009;28;20040;-76
2022/06/27 11:36:58;;;;;;;2.80;0.90;;;26.70;91.30;;;;;;5057248;28;20021;-76
2022/06/27 11:39:28;;;;;;;1.88;0.70;;;26.70;89.90;;;;;;5052784;28;20036;-75
2022/06/27 11:41:57;;;;;;;2.63;1.13;;;26.40;87.40;;;;;;5071767;28;20028;-76
2022/06/27 11:44:24;;;;;;;3.05;0.90;;;26.10;87.80;;;;;;5056827;28;20039;-76
2022/06/27 11:46:53;;;;;;;2.05;1.00;;;25.70;88.20;;;;;;5072892;28;20026;-75
2022/06/27 11:49:31;;;;;;;6.95;2.00;;;25.40;89.20;;;;;;5052980;28;20032;-77
2022/06/27 11:52:09;;;;;;;2.92;0.90;;;25.10;88.40;;;;;;5072335;28;20013;-78
2022/06/27 11:54:44;;;;;;;2.17;0.68;;;24.90;88.80;;;;;;5053341;28;20459;-76
2022/06/27 11:57:32;;;;;;;3.25;0.70;;;24.80;89.50;;;;;;5055705;28;20380;-76
2022/06/27 12:00:03;;;;;;;2.50;0.82;;;24.70;89.60;;;;;;5051526;28;20384;-76
2022/06/27 12:02:35;;;;;;;6.82;1.25;;;24.70;90.40;;;;;;5053540;28;20035;-76
2022/06/27 12:05:11;;;;;;;4.47;1.55;;;24.80;90.90;;;;;;5073172;28;20405;-76
2022/06/27 12:08:01;;;;;;;2.50;0.90;;;24.90;91.10;;;;;;5055824;28;20472;-76
2022/06/27 12:10:35;;;;;;;3.55;1.58;;;24.90;91.50;;;;;;5069515;28;20020;-76
2022/06/27 12:13:07;;;;;;;4.22;1.75;;;25.00;91.80;;;;;;5044843;28;20036;-76
2022/06/27 12:15:35;;;;;;;4.00;1.30;;;25.00;91.80;;;;;;5055367;28;20031;-77
2022/06/27 12:18:03;;;;;;;4.82;1.60;;;25.00;92.00;;;;;;5046254;28;20380;-77
2022/06/27 12:20:31;;;;;;;5.10;1.77;;;25.10;92.10;;;;;;5058278;28;20476;-77
2022/06/27 12:23:01;;;;;;;3.17;1.02;;;25.30;91.70;;;;;;5056953;28;20024;-78
2022/06/27 12:25:29;;;;;;;4.03;1.25;;;25.70;91.30;;;;;;5063275;28;20032;-78
2022/06/27 12:27:56;;;;;;;4.50;1.40;;;26.10;91.00;;;;;;5058111;28;20036;-79
2022/06/27 12:30:25;;;;;;;3.88;1.02;;;26.40;90.50;;;;;;5046003;28;20039;-78
2022/06/27 12:32:53;;;;;;;6.25;2.13;;;26.60;90.30;;;;;;5059824;28;20448;-78
2022/06/27 12:35:19;;;;;;;4.28;1.77;;;26.70;89.70;;;;;;5076004;28;20040;-79
2022/06/27 12:37:46;;;;;;;4.05;1.75;;;26.50;88.90;;;;;;5060278;28;20056;-79
2022/06/27 12:40:15;;;;;;;2.80;1.38;;;26.50;89.20;;;;;;5072661;28;20043;-78
2022/06/27 12:42:42;;;;;;;3.15;1.15;;;26.50;89.50;;;;;;5056575;28;20025;-78
2022/06/27 12:45:09;;;;;;;2.53;1.17;;;26.70;90.10;;;;;;5059128;28;20036;-79
2022/06/27 12:47:38;;;;;;;4.20;1.75;;;26.60;88.70;;;;;;5060683;28;20025;-78
2022/06/27 12:50:06;;;;;;;3.10;1.80;;;26.80;88.60;;;;;;5058991;28;20044;-77
2022/06/27 12:52:33;;;;;;;5.18;1.45;;;27.00;88.10;;;;;;5059497;28;20040;-78
2022/06/27 12:54:59;;;;;;;2.40;1.30;;;27.00;87.90;;;;;;5056245;28;20047;-77
2022/06/27 12:57:25;;;;;;;3.63;1.40;;;26.80;88.50;;;;;;5056450;28;20039;-77
2022/06/27 12:59:52;;;;;;;3.72;1.80;;;26.60;88.50;;;;;;5070335;28;20388;-77
2022/06/27 13:02:18;;;;;;;2.85;1.00;;;26.30;89.00;;;;;;5057894;28;20021;-77
2022/06/27 13:04:45;;;;;;;4.38;1.55;;;26.10;89.50;;;;;;5058544;28;20024;-78
2022/06/27 13:07:11;;;;;;;2.38;1.30;;;25.80;89.40;;;;;;5073454;28;20036;-77
2022/06/27 13:09:39;;;;;;;3.08;1.52;;;25.60;89.80;;;;;;5055366;28;20032;-76
2022/06/27 13:12:06;;;;;;;3.83;2.53;;;25.40;90.10;;;;;;5059441;28;20016;-76